Terminal Aerodrome Forecast
Issued by NWS

Home | Current Version | Previous Version | Text Only | Print | Product List | Glossary Off
Versions: 1 2 3 4 5 6 7 8 9 10 11 12 13 14 15 16 17 18

354
FTUS42 KTBW 201725
TAFPIE
TAF
KPIE 201725Z 2018/2118 19009KT P6SM SCT050 SCT120
     FM210200 18005KT P6SM SCT250
     FM211000 17004KT 5SM BR BKN008
     FM211400 17013G19KT P6SM SCT040 BKN120=

USA.gov is the U.S. government's official web portal to all federal, state and local government web resources and services.